sensor_id;sensor_type;location;lat;lon;timestamp;pressure;altitude;pressure_sealevel;temperature;humidity
51452;BME280;37521;52.020;-1.740;2022-07-30T00:00:25;100136.03;;;14.34;100.00
51452;BME280;37521;52.020;-1.740;2022-07-30T00:02:55;100135.56;;;14.41;100.00
51452;BME280;37521;52.020;-1.740;2022-07-30T00:05:23;100135.66;;;14.40;100.00
51452;BME280;37521;52.020;-1.740;2022-07-30T00:07:51;100137.38;;;14.41;100.00
51452;BME280;37521;52.020;-1.740;2022-07-30T00:10:20;100141.13;;;14.37;100.00
51452;BME280;37521;52.020;-1.740;2022-07-30T00:12:50;100140.00;;;14.27;100.00
51452;BME280;37521;52.020;-1.740;2022-07-30T00:15:18;100142.25;;;14.18;100.00
51452;BME280;37521;52.020;-1.740;2022-07-30T00:17:47;100135.59;;;14.11;100.00
51452;BME280;37521;52.020;-1.740;2022-07-30T00:20:16;100139.63;;;14.03;100.00
51452;BME280;37521;52.020;-1.740;2022-07-30T00:22:45;100143.50;;;13.97;100.00
51452;BME280;37521;52.020;-1.740;2022-07-30T00:25:13;100139.47;;;13.90;100.00
51452;BME280;37521;52.020;-1.740;2022-07-30T00:27:42;100138.91;;;13.85;100.00
51452;BME280;37521;52.020;-1.740;2022-07-30T00:30:12;100134.72;;;13.81;100.00
51452;BME280;37521;52.020;-1.740;2022-07-30T00:32:42;100125.41;;;13.74;100.00
51452;BME280;37521;52.020;-1.740;2022-07-30T00:35:12;100130.09;;;13.69;100.00
51452;BME280;37521;52.020;-1.740;2022-07-30T00:37:42;100124.81;;;13.69;100.00
51452;BME280;37521;52.020;-1.740;2022-07-30T00:40:10;100129.34;;;13.67;100.00
51452;BME280;37521;52.020;-1.740;2022-07-30T00:42:41;100136.56;;;13.65;100.00
51452;BME280;37521;52.020;-1.740;2022-07-30T00:45:12;100136.72;;;13.61;100.00
51452;BME280;37521;52.020;-1.740;2022-07-30T00:47:40;100135.16;;;13.57;100.00
51452;BME280;37521;52.020;-1.740;2022-07-30T00:50:11;100133.47;;;13.56;100.00
51452;BME280;37521;52.020;-1.740;2022-07-30T00:52:43;100132.69;;;13.54;100.00
51452;BME280;37521;52.020;-1.740;2022-07-30T00:55:13;100130.03;;;13.54;100.00
51452;BME280;37521;52.020;-1.740;2022-07-30T00:57:42;100129.28;;;13.52;100.00
51452;BME280;37521;52.020;-1.740;2022-07-30T01:00:14;100130.22;;;13.51;100.00
51452;BME280;37521;52.020;-1.740;2022-07-30T01:02:43;100116.03;;;13.52;100.00
51452;BME280;37521;52.020;-1.740;2022-07-30T01:05:12;100131.94;;;13.52;100.00
51452;BME280;37521;52.020;-1.740;2022-07-30T01:07:42;100127.56;;;13.51;100.00
51452;BME280;37521;52.020;-1.740;2022-07-30T01:10:13;100120.53;;;13.50;100.00
51452;BME280;37521;52.020;-1.740;2022-07-30T01:12:43;100124.94;;;13.51;100.00
51452;BME280;37521;52.020;-1.740;2022-07-30T01:15:11;100119.63;;;13.51;100.00
51452;BME280;37521;52.020;-1.740;2022-07-30T01:17:40;100121.31;;;13.52;100.00
51452;BME280;37521;52.020;-1.740;2022-07-30T01:20:14;100113.38;;;13.52;100.00
51452;BME280;37521;52.020;-1.740;2022-07-30T01:22:51;100117.03;;;13.50;100.00
51452;BME280;37521;52.020;-1.740;2022-07-30T01:25:35;100120.91;;;13.44;100.00
51452;BME280;37521;52.020;-1.740;2022-07-30T01:28:08;100120.91;;;13.44;100.00
51452;BME280;37521;52.020;-1.740;2022-07-30T01:30:40;100123.38;;;13.47;100.00
51452;BME280;37521;52.020;-1.740;2022-07-30T01:33:11;100126.03;;;13.47;100.00
51452;BME280;37521;52.020;-1.740;2022-07-30T01:35:42;100119.16;;;13.43;100.00
51452;BME280;37521;52.020;-1.740;2022-07-30T01:38:13;100118.50;;;13.40;100.00
51452;BME280;37521;52.020;-1.740;2022-07-30T01:40:44;100118.59;;;13.38;100.00
51452;BME280;37521;52.020;-1.740;2022-07-30T01:43:14;100108.06;;;13.36;100.00
51452;BME280;37521;52.020;-1.740;2022-07-30T01:45:45;100103.59;;;13.37;100.00
51452;BME280;37521;52.020;-1.740;2022-07-30T01:48:18;100105.34;;;13.38;100.00
51452;BME280;37521;52.020;-1.740;2022-07-30T01:50:50;100101.84;;;13.38;100.00
51452;BME280;37521;52.020;-1.740;2022-07-30T01:53:26;100100.59;;;13.43;100.00
51452;BME280;37521;52.020;-1.740;2022-07-30T01:55:59;100114.13;;;13.54;100.00
51452;BME280;37521;52.020;-1.740;2022-07-30T01:58:32;100110.28;;;13.60;100.00
51452;BME280;37521;52.020;-1.740;2022-07-30T02:01:12;100109.84;;;13.68;100.00
51452;BME280;37521;52.020;-1.740;2022-07-30T02:03:41;100109.63;;;13.71;100.00
51452;BME280;37521;52.020;-1.740;2022-07-30T02:06:15;100109.63;;;13.71;100.00
51452;BME280;37521;52.020;-1.740;2022-07-30T02:08:50;100111.38;;;13.72;100.00
51452;BME280;37521;52.020;-1.740;2022-07-30T02:11:21;100111.94;;;13.77;100.00
51452;BME280;37521;52.020;-1.740;2022-07-30T02:14:20;100109.53;;;13.88;100.00
51452;BME280;37521;52.020;-1.740;2022-07-30T02:16:53;100106.53;;;13.94;100.00
51452;BME280;37521;52.020;-1.740;2022-07-30T02:19:28;100103.25;;;14.05;100.00
51452;BME280;37521;52.020;-1.740;2022-07-30T02:22:05;100101.47;;;14.20;100.00
51452;BME280;37521;52.020;-1.740;2022-07-30T02:24:37;100104.31;;;14.31;100.00
51452;BME280;37521;52.020;-1.740;2022-07-30T02:27:13;100096.56;;;14.42;100.00
51452;BME280;37521;52.020;-1.740;2022-07-30T02:29:43;100109.03;;;14.56;100.00
51452;BME280;37521;52.020;-1.740;2022-07-30T02:32:16;100097.19;;;14.61;100.00
51452;BME280;37521;52.020;-1.740;2022-07-30T02:34:50;100097.38;;;14.58;100.00
51452;BME280;37521;52.020;-1.740;2022-07-30T02:37:20;100101.16;;;14.54;100.00
51452;BME280;37521;52.020;-1.740;2022-07-30T02:40:13;100116.25;;;14.54;100.00
51452;BME280;37521;52.020;-1.740;2022-07-30T02:42:48;100121.69;;;14.52;100.00
51452;BME280;37521;52.020;-1.740;2022-07-30T02:45:21;100110.59;;;14.44;100.00
51452;BME280;37521;52.020;-1.740;2022-07-30T02:47:53;100114.94;;;14.31;100.00
51452;BME280;37521;52.020;-1.740;2022-07-30T02:50:23;100119.13;;;14.21;100.00
51452;BME280;37521;52.020;-1.740;2022-07-30T02:52:54;100117.19;;;14.08;100.00
51452;BME280;37521;52.020;-1.740;2022-07-30T02:55:25;100125.78;;;13.98;100.00
51452;BME280;37521;52.020;-1.740;2022-07-30T02:57:57;100119.19;;;13.89;100.00
51452;BME280;37521;52.020;-1.740;2022-07-30T03:00:28;100120.50;;;13.82;100.00
51452;BME280;37521;52.020;-1.740;2022-07-30T03:02:58;100119.91;;;13.77;100.00
51452;BME280;37521;52.020;-1.740;2022-07-30T03:05:28;100115.13;;;13.68;100.00
51452;BME280;37521;52.020;-1.740;2022-07-30T03:07:59;100118.91;;;13.63;100.00
51452;BME280;37521;52.020;-1.740;2022-07-30T03:10:29;100114.13;;;13.54;100.00
51452;BME280;37521;52.020;-1.740;2022-07-30T03:13:00;100116.38;;;13.46;100.00
51452;BME280;37521;52.020;-1.740;2022-07-30T03:15:32;100112.25;;;13.41;100.00
51452;BME280;37521;52.020;-1.740;2022-07-30T03:18:06;100108.00;;;13.38;100.00
51452;BME280;37521;52.020;-1.740;2022-07-30T03:20:38;100099.44;;;13.33;100.00
51452;BME280;37521;52.020;-1.740;2022-07-30T03:23:07;100094.47;;;13.27;100.00
51452;BME280;37521;52.020;-1.740;2022-07-30T03:25:38;100096.41;;;13.23;100.00
51452;BME280;37521;52.020;-1.740;2022-07-30T03:28:10;100089.81;;;13.15;100.00
51452;BME280;37521;52.020;-1.740;2022-07-30T03:30:40;100094.59;;;13.08;100.00
51452;BME280;37521;52.020;-1.740;2022-07-30T03:33:11;100098.44;;;13.02;100.00
51452;BME280;37521;52.020;-1.740;2022-07-30T03:35:41;100096.81;;;13.00;100.00
51452;BME280;37521;52.020;-1.740;2022-07-30T03:38:11;100098.94;;;12.93;100.00
51452;BME280;37521;52.020;-1.740;2022-07-30T03:40:40;100105.34;;;12.89;100.00
51452;BME280;37521;52.020;-1.740;2022-07-30T03:43:11;100099.47;;;12.84;100.00
51452;BME280;37521;52.020;-1.740;2022-07-30T03:46:01;100110.31;;;12.79;100.00
51452;BME280;37521;52.020;-1.740;2022-07-30T03:48:33;100107.56;;;12.81;100.00
51452;BME280;37521;52.020;-1.740;2022-07-30T03:51:05;100102.25;;;12.81;100.00
51452;BME280;37521;52.020;-1.740;2022-07-30T03:53:39;100097.72;;;12.83;100.00
51452;BME280;37521;52.020;-1.740;2022-07-30T03:56:26;100097.56;;;12.86;100.00
51452;BME280;37521;52.020;-1.740;2022-07-30T03:58:56;100093.88;;;12.89;100.00
51452;BME280;37521;52.020;-1.740;2022-07-30T04:01:25;100088.44;;;12.92;100.00
51452;BME280;37521;52.020;-1.740;2022-07-30T04:04:02;100091.75;;;12.95;100.00
51452;BME280;37521;52.020;-1.740;2022-07-30T04:06:31;100095.13;;;12.99;100.00
51452;BME280;37521;52.020;-1.740;2022-07-30T04:09:02;100099.56;;;12.98;100.00
51452;BME280;37521;52.020;-1.740;2022-07-30T04:11:30;100107.44;;;13.00;100.00
51452;BME280;37521;52.020;-1.740;2022-07-30T04:14:13;100118.19;;;12.97;100.00
51452;BME280;37521;52.020;-1.740;2022-07-30T04:16:46;100111.25;;;12.94;100.00
51452;BME280;37521;52.020;-1.740;2022-07-30T04:19:23;100113.91;;;12.94;100.00
51452;BME280;37521;52.020;-1.740;2022-07-30T04:21:54;100119.13;;;12.96;100.00
51452;BME280;37521;52.020;-1.740;2022-07-30T04:24:24;100112.72;;;13.00;100.00
51452;BME280;37521;52.020;-1.740;2022-07-30T04:26:54;100104.69;;;13.01;100.00
51452;BME280;37521;52.020;-1.740;2022-07-30T04:29:26;100107.34;;;13.01;100.00
51452;BME280;37521;52.020;-1.740;2022-07-30T04:31:55;100100.16;;;13.03;100.00
51452;BME280;37521;52.020;-1.740;2022-07-30T04:34:46;100088.78;;;13.01;100.00
51452;BME280;37521;52.020;-1.740;2022-07-30T04:37:19;100090.81;;;12.96;100.00
51452;BME280;37521;52.020;-1.740;2022-07-30T04:39:48;100093.75;;;12.92;100.00
51452;BME280;37521;52.020;-1.740;2022-07-30T04:42:20;100100.03;;;12.89;100.00
51452;BME280;37521;52.020;-1.740;2022-07-30T04:45:01;100108.00;;;12.89;100.00
51452;BME280;37521;52.020;-1.740;2022-07-30T04:47:43;100095.69;;;12.88;100.00
51452;BME280;37521;52.020;-1.740;2022-07-30T04:50:32;100084.16;;;12.89;100.00
51452;BME280;37521;52.020;-1.740;2022-07-30T04:53:05;100099.09;;;12.90;100.00
51452;BME280;37521;52.020;-1.740;2022-07-30T04:55:40;100102.63;;;12.91;100.00
51452;BME280;37521;52.020;-1.740;2022-07-30T04:58:09;100102.63;;;12.91;100.00
51452;BME280;37521;52.020;-1.740;2022-07-30T05:00:42;100106.06;;;12.93;100.00
51452;BME280;37521;52.020;-1.740;2022-07-30T05:03:15;100108.78;;;12.91;100.00
51452;BME280;37521;52.020;-1.740;2022-07-30T05:05:49;100104.41;;;12.90;100.00
51452;BME280;37521;52.020;-1.740;2022-07-30T05:08:24;100094.75;;;12.89;100.00
51452;BME280;37521;52.020;-1.740;2022-07-30T05:10:57;100092.09;;;12.89;100.00
51452;BME280;37521;52.020;-1.740;2022-07-30T05:13:26;100089.53;;;12.88;100.00
51452;BME280;37521;52.020;-1.740;2022-07-30T05:16:06;100099.19;;;12.89;100.00
51452;BME280;37521;52.020;-1.740;2022-07-30T05:18:34;100092.88;;;12.91;100.00
51452;BME280;37521;52.020;-1.740;2022-07-30T05:21:03;100087.41;;;12.94;100.00
51452;BME280;37521;52.020;-1.740;2022-07-30T05:23:41;100094.06;;;13.01;100.00
51452;BME280;37521;52.020;-1.740;2022-07-30T05:26:36;100110.50;;;13.08;100.00
51452;BME280;37521;52.020;-1.740;2022-07-30T05:29:06;100111.03;;;13.15;100.00
51452;BME280;37521;52.020;-1.740;2022-07-30T05:31:46;100102.66;;;13.22;100.00
51452;BME280;37521;52.020;-1.740;2022-07-30T05:34:15;100103.19;;;13.29;100.00
51452;BME280;37521;52.020;-1.740;2022-07-30T05:36:44;100102.19;;;13.31;100.00
51452;BME280;37521;52.020;-1.740;2022-07-30T05:39:15;100100.09;;;13.36;100.00
51452;BME280;37521;52.020;-1.740;2022-07-30T05:42:02;100104.19;;;13.42;100.00
51452;BME280;37521;52.020;-1.740;2022-07-30T05:44:34;100111.06;;;13.46;100.00
51452;BME280;37521;52.020;-1.740;2022-07-30T05:47:04;100109.66;;;13.55;100.00
51452;BME280;37521;52.020;-1.740;2022-07-30T05:49:32;100110.94;;;13.63;100.00
51452;BME280;37521;52.020;-1.740;2022-07-30T05:52:06;100102.56;;;13.71;100.00
51452;BME280;37521;52.020;-1.740;2022-07-30T05:54:34;100099.38;;;13.80;100.00
51452;BME280;37521;52.020;-1.740;2022-07-30T05:57:03;100098.75;;;13.91;100.00
51452;BME280;37521;52.020;-1.740;2022-07-30T05:59:33;100110.53;;;14.01;100.00
51452;BME280;37521;52.020;-1.740;2022-07-30T06:02:09;100098.44;;;14.11;100.00
51452;BME280;37521;52.020;-1.740;2022-07-30T06:04:51;100094.25;;;14.22;100.00
51452;BME280;37521;52.020;-1.740;2022-07-30T06:07:20;100082.22;;;14.30;100.00
51452;BME280;37521;52.020;-1.740;2022-07-30T06:09:51;100084.44;;;14.38;100.00
51452;BME280;37521;52.020;-1.740;2022-07-30T06:12:20;100092.22;;;14.41;100.00
51452;BME280;37521;52.020;-1.740;2022-07-30T06:14:48;100090.22;;;14.44;100.00
51452;BME280;37521;52.020;-1.740;2022-07-30T06:17:24;100095.19;;;14.51;100.00
51452;BME280;37521;52.020;-1.740;2022-07-30T06:20:11;100086.19;;;14.53;100.00
51452;BME280;37521;52.020;-1.740;2022-07-30T06:22:58;100082.19;;;14.60;100.00
51452;BME280;37521;52.020;-1.740;2022-07-30T06:25:45;100093.94;;;14.56;100.00
51452;BME280;37521;52.020;-1.740;2022-07-30T06:28:15;100097.75;;;14.52;100.00
51452;BME280;37521;52.020;-1.740;2022-07-30T06:31:03;100101.72;;;14.45;100.00
51452;BME280;37521;52.020;-1.740;2022-07-30T06:33:33;100096.47;;;14.43;100.00
51452;BME280;37521;52.020;-1.740;2022-07-30T06:36:02;100100.94;;;14.43;100.00
51452;BME280;37521;52.020;-1.740;2022-07-30T06:38:40;100093.81;;;14.43;100.00
51452;BME280;37521;52.020;-1.740;2022-07-30T06:41:12;100096.31;;;14.47;100.00
51452;BME280;37521;52.020;-1.740;2022-07-30T06:43:51;100094.31;;;14.50;100.00
51452;BME280;37521;52.020;-1.740;2022-07-30T06:46:41;100106.28;;;14.57;100.00
51452;BME280;37521;52.020;-1.740;2022-07-30T06:49:12;100099.09;;;14.59;100.00
51452;BME280;37521;52.020;-1.740;2022-07-30T06:51:41;100116.53;;;14.63;100.00
51452;BME280;37521;52.020;-1.740;2022-07-30T06:54:09;100118.25;;;14.64;100.00
51452;BME280;37521;52.020;-1.740;2022-07-30T06:56:56;100113.59;;;14.68;100.00
51452;BME280;37521;52.020;-1.740;2022-07-30T06:59:26;100119.59;;;14.71;100.00
51452;BME280;37521;52.020;-1.740;2022-07-30T07:02:13;100124.72;;;14.75;100.00
51452;BME280;37521;52.020;-1.740;2022-07-30T07:04:58;100132.69;;;14.75;100.00
51452;BME280;37521;52.020;-1.740;2022-07-30T07:07:27;100124.72;;;14.75;100.00
51452;BME280;37521;52.020;-1.740;2022-07-30T07:10:10;100129.94;;;14.76;100.00
51452;BME280;37521;52.020;-1.740;2022-07-30T07:12:44;100122.91;;;14.75;100.00
51452;BME280;37521;52.020;-1.740;2022-07-30T07:15:15;100139.59;;;14.77;100.00
51452;BME280;37521;52.020;-1.740;2022-07-30T07:17:44;100138.75;;;14.77;100.00
51452;BME280;37521;52.020;-1.740;2022-07-30T07:20:28;100133.38;;;14.78;100.00
51452;BME280;37521;52.020;-1.740;2022-07-30T07:23:01;100134.38;;;14.90;100.00
51452;BME280;37521;52.020;-1.740;2022-07-30T07:25:37;100137.03;;;15.04;100.00
51452;BME280;37521;52.020;-1.740;2022-07-30T07:28:06;100129.47;;;15.12;100.00
51452;BME280;37521;52.020;-1.740;2022-07-30T07:30:42;100130.97;;;15.16;100.00
51452;BME280;37521;52.020;-1.740;2022-07-30T07:33:12;100128.66;;;15.24;100.00
51452;BME280;37521;52.020;-1.740;2022-07-30T07:35:45;100121.53;;;15.39;100.00
51452;BME280;37521;52.020;-1.740;2022-07-30T07:38:25;100109.41;;;15.48;100.00
51452;BME280;37521;52.020;-1.740;2022-07-30T07:40:54;100111.28;;;15.60;100.00
51452;BME280;37521;52.020;-1.740;2022-07-30T07:43:23;100101.75;;;15.70;100.00
51452;BME280;37521;52.020;-1.740;2022-07-30T07:45:55;100101.91;;;15.82;100.00
51452;BME280;37521;52.020;-1.740;2022-07-30T07:48:26;100102.06;;;15.93;100.00
51452;BME280;37521;52.020;-1.740;2022-07-30T07:51:06;100106.47;;;16.06;100.00
51452;BME280;37521;52.020;-1.740;2022-07-30T07:53:36;100110.31;;;16.15;100.00
51452;BME280;37521;52.020;-1.740;2022-07-30T07:56:05;100102.44;;;16.26;100.00
51452;BME280;37521;52.020;-1.740;2022-07-30T07:58:35;100096.47;;;16.35;100.00
51452;BME280;37521;52.020;-1.740;2022-07-30T08:01:09;100100.31;;;16.44;100.00
51452;BME280;37521;52.020;-1.740;2022-07-30T08:03:57;100094.78;;;16.60;100.00
51452;BME280;37521;52.020;-1.740;2022-07-30T08:06:47;100096.72;;;16.71;100.00
51452;BME280;37521;52.020;-1.740;2022-07-30T08:09:34;100095.22;;;16.79;100.00
51452;BME280;37521;52.020;-1.740;2022-07-30T08:12:21;100095.00;;;16.82;100.00
51452;BME280;37521;52.020;-1.740;2022-07-30T08:15:08;100103.97;;;16.81;100.00
51452;BME280;37521;52.020;-1.740;2022-07-30T08:17:55;100107.59;;;16.80;100.00
51452;BME280;37521;52.020;-1.740;2022-07-30T08:20:42;100104.16;;;16.78;100.00
51452;BME280;37521;52.020;-1.740;2022-07-30T08:23:13;100103.97;;;16.81;100.00
51452;BME280;37521;52.020;-1.740;2022-07-30T08:25:42;100104.59;;;16.85;100.00
51452;BME280;37521;52.020;-1.740;2022-07-30T08:28:10;100100.97;;;16.86;100.00
51452;BME280;37521;52.020;-1.740;2022-07-30T08:30:58;100103.72;;;16.84;100.00
51452;BME280;37521;52.020;-1.740;2022-07-30T08:33:28;100110.81;;;16.85;100.00
51452;BME280;37521;52.020;-1.740;2022-07-30T08:35:56;100116.13;;;16.85;100.00
51452;BME280;37521;52.020;-1.740;2022-07-30T08:38:36;100109.06;;;16.84;100.00
51452;BME280;37521;52.020;-1.740;2022-07-30T08:41:06;100104.59;;;16.85;100.00
51452;BME280;37521;52.020;-1.740;2022-07-30T08:43:35;100099.66;;;16.92;100.00
51452;BME280;37521;52.020;-1.740;2022-07-30T08:46:08;100100.97;;;16.99;100.00
51452;BME280;37521;52.020;-1.740;2022-07-30T08:48:45;100100.72;;;17.02;100.00
51452;BME280;37521;52.020;-1.740;2022-07-30T08:51:15;100111.81;;;17.08;100.00
51452;BME280;37521;52.020;-1.740;2022-07-30T08:53:45;100114.19;;;17.00;100.00
51452;BME280;37521;52.020;-1.740;2022-07-30T08:56:15;100121.78;;;16.94;100.00
51452;BME280;37521;52.020;-1.740;2022-07-30T08:58:45;100123.25;;;16.98;100.00
51452;BME280;37521;52.020;-1.740;2022-07-30T09:01:15;100130.81;;;17.04;100.00
51452;BME280;37521;52.020;-1.740;2022-07-30T09:03:44;100126.44;;;17.03;100.00
51452;BME280;37521;52.020;-1.740;2022-07-30T09:06:12;100134.25;;;17.06;100.00
51452;BME280;37521;52.020;-1.740;2022-07-30T09:08:43;100126.13;;;17.07;100.00
51452;BME280;37521;52.020;-1.740;2022-07-30T09:11:13;100136.25;;;17.02;100.00
51452;BME280;37521;52.020;-1.740;2022-07-30T09:13:42;100142.75;;;16.98;100.00
51452;BME280;37521;52.020;-1.740;2022-07-30T09:16:20;100148.44;;;16.94;100.00
51452;BME280;37521;52.020;-1.740;2022-07-30T09:18:51;100150.16;;;16.95;100.00
51452;BME280;37521;52.020;-1.740;2022-07-30T09:21:22;100142.34;;;16.92;100.00
51452;BME280;37521;52.020;-1.740;2022-07-30T09:24:07;100135.09;;;16.94;100.00
51452;BME280;37521;52.020;-1.740;2022-07-30T09:26:58;100133.72;;;17.01;100.00
51452;BME280;37521;52.020;-1.740;2022-07-30T09:29:46;100129.53;;;17.09;100.00
51452;BME280;37521;52.020;-1.740;2022-07-30T09:32:48;100123.31;;;17.22;100.00
51452;BME280;37521;52.020;-1.740;2022-07-30T09:35:38;100118.91;;;17.33;100.00
51452;BME280;37521;52.020;-1.740;2022-07-30T09:38:08;100134.03;;;17.46;100.00
51452;BME280;37521;52.020;-1.740;2022-07-30T09:40:57;100123.81;;;17.63;100.00
51452;BME280;37521;52.020;-1.740;2022-07-30T09:43:47;100133.16;;;17.82;100.00
51452;BME280;37521;52.020;-1.740;2022-07-30T09:46:23;100127.78;;;17.94;100.00
51452;BME280;37521;52.020;-1.740;2022-07-30T09:49:12;100124.19;;;18.07;100.00
51452;BME280;37521;52.020;-1.740;2022-07-30T09:51:41;100129.75;;;18.04;100.00
51452;BME280;37521;52.020;-1.740;2022-07-30T09:54:23;100129.22;;;17.98;100.00
51452;BME280;37521;52.020;-1.740;2022-07-30T09:57:03;100131.56;;;18.03;100.00
51452;BME280;37521;52.020;-1.740;2022-07-30T09:59:55;100133.44;;;18.14;100.00
51452;BME280;37521;52.020;-1.740;2022-07-30T10:02:29;100137.09;;;18.24;100.00
51452;BME280;37521;52.020;-1.740;2022-07-30T10:05:18;100136.13;;;18.25;100.00
51452;BME280;37521;52.020;-1.740;2022-07-30T10:07:51;100134.44;;;18.24;100.00
51452;BME280;37521;52.020;-1.740;2022-07-30T10:10:22;100124.97;;;18.20;100.00
51452;BME280;37521;52.020;-1.740;2022-07-30T10:12:55;100128.09;;;18.14;100.00
51452;BME280;37521;52.020;-1.740;2022-07-30T10:15:55;100131.28;;;18.19;100.00
51452;BME280;37521;52.020;-1.740;2022-07-30T10:18:42;100127.16;;;18.26;100.00
51452;BME280;37521;52.020;-1.740;2022-07-30T10:22:32;100136.16;;;18.36;100.00
51452;BME280;37521;52.020;-1.740;2022-07-30T10:26:18;100140.31;;;18.40;100.00
51452;BME280;37521;52.020;-1.740;2022-07-30T10:29:36;100130.59;;;18.39;100.00
51452;BME280;37521;52.020;-1.740;2022-07-30T12:25:05;100131.66;;;19.28;100.00
51452;BME280;37521;52.020;-1.740;2022-07-30T12:27:34;100127.16;;;19.28;100.00
51452;BME280;37521;52.020;-1.740;2022-07-30T12:30:03;100126.66;;;19.35;100.00
51452;BME280;37521;52.020;-1.740;2022-07-30T12:32:32;100128.09;;;19.39;100.00
51452;BME280;37521;52.020;-1.740;2022-07-30T12:35:01;100119.47;;;19.46;100.00
51452;BME280;37521;52.020;-1.740;2022-07-30T12:37:30;100110.03;;;19.52;100.00
51452;BME280;37521;52.020;-1.740;2022-07-30T12:40:18;100104.56;;;19.65;100.00
51452;BME280;37521;52.020;-1.740;2022-07-30T12:42:48;100116.75;;;19.69;100.00
51452;BME280;37521;52.020;-1.740;2022-07-30T12:45:37;100108.00;;;19.67;100.00
51452;BME280;37521;52.020;-1.740;2022-07-30T12:48:17;100100.69;;;19.69;100.00
51452;BME280;37521;52.020;-1.740;2022-07-30T12:50:47;100108.56;;;19.70;100.00
51452;BME280;37521;52.020;-1.740;2022-07-30T12:53:16;100107.88;;;19.68;100.00
51452;BME280;37521;52.020;-1.740;2022-07-30T12:55:45;100102.38;;;19.70;100.00
51452;BME280;37521;52.020;-1.740;2022-07-30T12:58:14;100097.72;;;19.72;100.00
51452;BME280;37521;52.020;-1.740;2022-07-30T13:00:46;100101.16;;;19.74;100.00
51452;BME280;37521;52.020;-1.740;2022-07-30T13:03:19;100100.88;;;19.77;100.00
51452;BME280;37521;52.020;-1.740;2022-07-30T13:05:49;100096.47;;;19.87;100.00
51452;BME280;37521;52.020;-1.740;2022-07-30T13:08:44;100103.69;;;20.07;100.00
51452;BME280;37521;52.020;-1.740;2022-07-30T13:11:14;100100.94;;;20.19;100.00
51452;BME280;37521;52.020;-1.740;2022-07-30T13:13:43;100105.25;;;20.31;100.00
51452;BME280;37521;52.020;-1.740;2022-07-30T13:16:12;100098.19;;;20.30;100.00
51452;BME280;37521;52.020;-1.740;2022-07-30T13:18:40;100102.09;;;20.26;100.00
51452;BME280;37521;52.020;-1.740;2022-07-30T13:21:08;100103.59;;;20.19;100.00
51452;BME280;37521;52.020;-1.740;2022-07-30T13:23:38;100101.72;;;20.09;100.00
51452;BME280;37521;52.020;-1.740;2022-07-30T13:26:07;100094.66;;;20.08;100.00
51452;BME280;37521;52.020;-1.740;2022-07-30T13:28:38;100087.50;;;19.98;100.00
51452;BME280;37521;52.020;-1.740;2022-07-30T13:31:06;100094.22;;;19.92;100.00
51452;BME280;37521;52.020;-1.740;2022-07-30T13:33:35;100097.56;;;19.84;100.00
51452;BME280;37521;52.020;-1.740;2022-07-30T13:36:04;100102.56;;;19.78;100.00
51452;BME280;37521;52.020;-1.740;2022-07-30T13:38:32;100093.16;;;19.63;100.00
51452;BME280;37521;52.020;-1.740;2022-07-30T13:41:00;100087.06;;;19.61;100.00
51452;BME280;37521;52.020;-1.740;2022-07-30T13:43:29;100095.31;;;19.69;100.00
51452;BME280;37521;52.020;-1.740;2022-07-30T13:46:01;100091.88;;;19.78;100.00
51452;BME280;37521;52.020;-1.740;2022-07-30T13:48:31;100088.16;;;19.90;100.00
51452;BME280;37521;52.020;-1.740;2022-07-30T13:51:00;100093.47;;;20.01;100.00
51452;BME280;37521;52.020;-1.740;2022-07-30T13:53:29;100085.97;;;20.16;100.00
51452;BME280;37521;52.020;-1.740;2022-07-30T13:55:58;100089.91;;;20.33;100.00
51452;BME280;37521;52.020;-1.740;2022-07-30T13:58:26;100081.31;;;20.39;100.00
51452;BME280;37521;52.020;-1.740;2022-07-30T14:01:02;100075.94;;;20.39;100.00
51452;BME280;37521;52.020;-1.740;2022-07-30T14:03:33;100080.22;;;20.41;100.00
51452;BME280;37521;52.020;-1.740;2022-07-30T14:06:02;100078.59;;;20.50;100.00
51452;BME280;37521;52.020;-1.740;2022-07-30T14:08:37;100083.88;;;20.40;100.00
51452;BME280;37521;52.020;-1.740;2022-07-30T14:11:05;100080.66;;;20.26;100.00
51452;BME280;37521;52.020;-1.740;2022-07-30T14:13:34;100089.03;;;20.11;100.00
51452;BME280;37521;52.020;-1.740;2022-07-30T14:16:04;100083.47;;;20.03;100.00
51452;BME280;37521;52.020;-1.740;2022-07-30T14:18:53;100089.38;;;19.86;100.00
51452;BME280;37521;52.020;-1.740;2022-07-30T14:21:21;100089.47;;;19.64;100.00
51452;BME280;37521;52.020;-1.740;2022-07-30T14:23:49;100079.28;;;19.46;100.00
51452;BME280;37521;52.020;-1.740;2022-07-30T14:26:17;100081.28;;;19.33;100.00
51452;BME280;37521;52.020;-1.740;2022-07-30T14:28:45;100081.03;;;19.25;100.00
51452;BME280;37521;52.020;-1.740;2022-07-30T14:31:15;100076.06;;;19.20;100.00
51452;BME280;37521;52.020;-1.740;2022-07-30T14:33:43;100072.16;;;19.24;100.00
51452;BME280;37521;52.020;-1.740;2022-07-30T14:36:13;100079.81;;;19.29;100.00
51452;BME280;37521;52.020;-1.740;2022-07-30T14:38:41;100081.28;;;19.33;100.00
51452;BME280;37521;52.020;-1.740;2022-07-30T14:41:09;100079.69;;;19.30;100.00
51452;BME280;37521;52.020;-1.740;2022-07-30T14:43:38;100079.59;;;19.21;100.00
51452;BME280;37521;52.020;-1.740;2022-07-30T14:46:06;100071.56;;;19.21;100.00
51452;BME280;37521;52.020;-1.740;2022-07-30T14:48:36;100078.13;;;19.28;100.00
51452;BME280;37521;52.020;-1.740;2022-07-30T14:51:05;100068.13;;;19.30;100.00
51452;BME280;37521;52.020;-1.740;2022-07-30T14:53:45;100078.34;;;19.25;100.00
51452;BME280;37521;52.020;-1.740;2022-07-30T14:56:13;100073.25;;;19.22;100.00
51452;BME280;37521;52.020;-1.740;2022-07-30T14:58:43;100075.22;;;19.20;100.00